Whatley Landing, Louisiana
Current Conditions -  °F | °C
As of 6:53 PM on Friday 19 Dec 2014 (Local Time) from KESF Reporting Station
Overcast Overcast  
Wind Chill: 46°   Ceiling: 700
Heat Index: 48°   Visibility: 10mi
Dew Point: 46°   Wind: 5mph
Humidity: 93%   Direction: NA
Pressure: 30.1"   Gusts: NA
Location:  31.6376°N, 92.2485°W
Report Text: KESF 200053Z AUTO VRB04KT 10SM OVC007 09/08 A3010 RMK AO2 RAB11E31 CIG 005V010 SLP192 P0000 T00890078
Loading
Personal Weather Stations






























Interactive Weather Map New forecast layout! Learn more

10-Day Weather Forecast

Advertisements
Track Severe Weather on mobile